Hauptseite
METAR-TAF:

METAR-TAF

Flughäfen :

Duschanbe, Tadschikistan

Flughafen Duschanbe

Breite: 38-33N, Länge: 068-47E, Höhe: 803 m

Beobachtung

Neuester Wetterbericht von vor 31 Minuten, um 16:00 UTC
Wind 6 kt aus Nordost
Temperatur 9°C
Luftfeuchtigkeit 53%
Luftdruck 1027 hPa
Sichtweite: 7000 m

METAR: UTDD 181600Z 05003MPS 7000 NSC 09/M00 Q1027 R09/D NOSIG RMK QFE701/0935

Zeit: 21:31 (16:31 UTC)

Prognose

Neuester Wetterbericht von vor 1 Stunde und 31 Minuten, um 15:00 UTC
Gültige Prognose vom 18 um 16 UTC bis 19 um 04 UTC
Wind 4 kt aus unterschiedlichen Richtungen
Sichtweite: 5000 m
Leicht bewölkt in der Höhe von 6600 ft
Aufgelockert bewölkt in der Höhe von 13000 ft
feuchter Dunst, Rauch
Zeitweise
vom 18 um 16 UTC bis 19 um 04 UTC
Wind 10 kt aus Ost
Sichtweite: 2100 m
feuchter Dunst, Rauch

TAF: UTDD 181500Z 1816/1904 VRB02MPS 5000 BR FU FEW066 SCT130 TEMPO 1816/1904 09005MPS 2100 BR FU

Wetterbeobachtungen und Prognosen von mehr als 4000 Flughäfen (METAR und TAF Bericht).

Die verfügbaren Stationen werden durch gelbe und rote Markierungen auf der Karte dargestellt.

Führen Sie die Maus auf sie, um den Namen der Station zu sehen.

Darauf klicken, um die Beobachtung von Wetterbeobachtungen und Prognosen zu sehen.

Um die Karte zu ändern : klicken Sie auf den grünen Tasten mit einem schwarzen Kreuz Zum Vergrößern, auf den grünen Button mit einem Gedankenstrich zu verkleinern, oder auf die grünen Pfeile für benachbarte Karten.


METAR-TAF: